FYKT/KMP METAR and TAF weather

Enter ICAO airport designator
Station Type Date Time Source
FYKT METAR 2024/05/28 23:00 UTC NOAA

FYKT 282300Z AUTO 04010KT //// // ////// 20/M01 Q1023


Station Type Date Time Source
FYKT Decoded METAR 2024/05/28 23:00 UTC NOAA

Keetmanshoop, Namibia (FYKT) 26-32S 018-07E 1100M
May 28, 2024 - 07:00 PM EDT / 2024.05.28 2300 UTC
Wind: from the NE (040 degrees) at 12 MPH (10 KT):0
Temperature: 68 F (20 C)
Dew Point: 30 F (-1 C)
Relative Humidity: 24%
Pressure (altimeter): 30.21 in. Hg (1023 hPa)
ob: FYKT 282300Z AUTO 04010KT //// // ////// 20/M01 Q1023
cycle: 23

Station Type Date Time Source
FYKT TAF 2024/05/28 18:45 UTC NOAA